If you wish to contribute or participate in the discussions about articles you are invited to join SKYbrary as a registered user

 Actions

Tandil Airport

From SKYbrary Wiki

SAZT
Airport
ICAO: SAZT – IATA: TDL
Summary
Name Tandil Airport
Region South America and Caribbean
Territory Argentina AR.gif
Location Tandil, Buenos Aires
Serving Tandil
Elevation 174.955 m
574 ft
574 ft174.955 m
Type medium airport
Coordinates 37° 14' 14.61" S, 59° 13' 40.52" W
Runways
Designator Length Width Surface ROPS
1/19 2550 m8,366.142 ft
48 m157.48 ft
CON /


METAR
Observation SAZT 171745Z 25013G26KT CAVOK 20/01 Q1004
Station Tandil Aerodrome
Date/Time 17 September 2019 17:45:00
Wind direction 250°
Wind speed 13 kts
Lowest cloud amount clouds and visibility OK
Temperature 20°C
Dew point 1°C
Humidity 28%
QNH 1004 hPa
Weather condition n/a

Airport 18km 9.719 nm
18,000 m
59,055.118 ft
northwest of Tandil, Buenos Aires province, Argentina. The airport is mainly used for military training.

Climatology

Temperate oceanic climate (Köppen climate classification Cfb).

Maps

Terrain

Loading map...

Airport Layout

Loading map...


Accidents & Serious Incidents at or in vicinity of SAZT

None on SKYbrary